Time;durP1;ratioP1;P1;durP2;ratioP2;P2;SDS_P1;SDS_P2;PMS_P1;PMS_P2;Temp;Humidity;BMP_temperature;BMP_pressure;BME280_temperature;BME280_humidity;BME280_pressure;Samples;Min_cycle;Max_cycle;Signal;HPM_P1;HPM_P2
2023/06/24 00:01:16;;;;;;;73.57;37.15;;;;;;;19.27;100.00;102076.72;6165519;23;20020;-81
2023/06/24 00:03:46;;;;;;;70.88;34.85;;;;;;;19.20;100.00;102083.84;6218908;23;20023;-81
2023/06/24 00:06:18;;;;;;;66.43;34.03;;;;;;;19.16;100.00;102086.06;6195816;23;20015;-81
2023/06/24 00:08:47;;;;;;;67.20;33.75;;;;;;;19.22;100.00;102095.72;6195101;23;20099;-80
2023/06/24 00:11:13;;;;;;;66.05;34.60;;;;;;;19.20;100.00;102084.75;6193989;23;20016;-81
2023/06/24 00:13:40;;;;;;;62.85;33.60;;;;;;;19.23;100.00;102090.03;6245830;23;20012;-80
2023/06/24 00:16:06;;;;;;;68.70;33.15;;;;;;;19.23;100.00;102087.25;6220523;23;20008;-80
2023/06/24 00:18:32;;;;;;;62.40;33.05;;;;;;;19.18;100.00;102077.59;6220020;23;20012;-80
2023/06/24 00:20:58;;;;;;;63.80;32.17;;;;;;;19.29;100.00;102086.63;6246691;23;20087;-81
2023/06/24 00:23:27;;;;;;;59.20;30.17;;;;;;;19.34;100.00;102083.41;6194648;23;20040;-81
2023/06/24 00:25:53;;;;;;;55.08;29.10;;;;;;;19.25;100.00;102084.28;6219629;23;20008;-80
2023/06/24 00:28:18;;;;;;;60.25;30.08;;;;;;;19.14;100.00;102076.16;6169909;23;20051;-80
2023/06/24 00:30:44;;;;;;;55.85;30.25;;;;;;;19.16;100.00;102087.97;6194581;23;20008;-78
2023/06/24 00:33:11;;;;;;;59.17;29.63;;;;;;;19.09;100.00;102079.34;6220051;23;20008;-80
2023/06/24 00:35:37;;;;;;;54.45;27.35;;;;;;;19.25;100.00;102074.06;6241951;23;20103;-80
2023/06/24 00:38:03;;;;;;;56.28;29.55;;;;;;;19.19;100.00;102073.78;6217529;23;20093;-81
2023/06/24 00:40:29;;;;;;;59.53;30.55;;;;;;;19.17;100.00;102078.59;6192945;23;20086;-81
2023/06/24 00:42:55;;;;;;;62.00;31.52;;;;;;;19.00;100.00;102075.53;6218193;23;20004;-81
2023/06/24 00:45:21;;;;;;;72.97;33.42;;;;;;;19.06;100.00;102077.75;6242561;23;20015;-81
2023/06/24 00:47:47;;;;;;;66.20;31.33;;;;;;;18.96;100.00;102081.56;6165962;23;20062;-81
2023/06/24 00:50:14;;;;;;;63.10;31.30;;;;;;;18.94;100.00;102086.34;6217005;23;20379;-79
2023/06/24 00:52:42;;;;;;;70.00;31.90;;;;;;;18.90;100.00;102086.66;6218000;23;20016;-81
2023/06/24 00:55:12;;;;;;;62.35;29.23;;;;;;;18.88;100.00;102091.47;6216061;23;20016;-79
2023/06/24 00:58:01;;;;;;;66.45;30.58;;;;;;;18.71;100.00;102093.06;6215698;23;20024;-81
2023/06/24 01:00:26;;;;;;;69.32;31.00;;;;;;;18.84;100.00;102091.91;6216310;23;20062;-75
2023/06/24 01:02:52;;;;;;;65.40;30.73;;;;;;;18.64;100.00;102096.53;6241982;23;20416;-75
2023/06/24 01:05:17;;;;;;;62.42;28.52;;;;;;;18.64;100.00;102094.63;6189477;23;20012;-77
2023/06/24 01:07:43;;;;;;;53.70;28.38;;;;;;;18.57;100.00;102095.38;6240647;23;20011;-74
2023/06/24 01:10:12;;;;;;;56.75;28.35;;;;;;;18.74;100.00;102108.50;6215401;23;20102;-75
2023/06/24 01:12:39;;;;;;;59.33;30.25;;;;;;;18.80;100.00;102096.84;6217882;23;20031;-74
2023/06/24 01:15:09;;;;;;;62.55;30.25;;;;;;;18.63;100.00;102095.66;6192801;23;20015;-74
2023/06/24 01:17:47;;;;;;;56.97;30.13;;;;;;;18.64;100.00;102088.22;6244072;23;20523;-75
2023/06/24 01:20:19;;;;;;;69.00;32.22;;;;;;;18.73;100.00;102090.13;6218566;23;20038;-75
2023/06/24 01:22:53;;;;;;;61.55;32.88;;;;;;;18.64;100.00;102079.91;6244646;23;20332;-75
2023/06/24 01:25:37;;;;;;;60.47;31.17;;;;;;;18.83;100.00;102077.16;6245997;23;20023;-75
2023/06/24 01:28:23;;;;;;;62.47;33.10;;;;;;;18.69;100.00;102080.34;6193322;23;20008;-79
2023/06/24 01:31:10;;;;;;;64.80;32.15;;;;;;;18.74;100.00;102081.66;6217812;23;20158;-79
2023/06/24 01:33:48;;;;;;;65.35;32.58;;;;;;;18.46;100.00;102065.84;6193200;23;20012;-79
2023/06/24 01:36:16;;;;;;;68.60;35.20;;;;;;;18.62;100.00;102070.84;6245028;23;20485;-78
2023/06/24 01:39:06;;;;;;;65.10;35.03;;;;;;;18.58;100.00;102072.13;6217435;23;20026;-77
2023/06/24 01:41:35;;;;;;;69.32;34.55;;;;;;;18.60;100.00;102071.00;6245030;23;20004;-78
2023/06/24 01:44:04;;;;;;;69.60;34.72;;;;;;;18.45;100.00;102070.53;6217656;23;20011;-78
2023/06/24 01:46:30;;;;;;;63.92;31.63;;;;;;;18.48;100.00;102075.78;6192839;23;20314;-79
2023/06/24 01:49:04;;;;;;;56.80;31.45;;;;;;;18.45;100.00;102064.97;6193141;23;20027;-79
2023/06/24 01:51:32;;;;;;;64.65;31.48;;;;;;;18.21;100.00;102067.28;6218403;23;20015;-80
2023/06/24 01:54:06;;;;;;;59.55;31.42;;;;;;;18.10;100.00;102071.00;6218058;23;20336;-79
2023/06/24 01:56:34;;;;;;;62.63;31.45;;;;;;;17.99;100.00;102063.72;6217026;23;20034;-78
2023/06/24 01:59:03;;;;;;;68.45;33.40;;;;;;;17.97;100.00;102069.38;6189053;23;20062;-79
2023/06/24 02:01:33;;;;;;;64.93;33.38;;;;;;;18.06;100.00;102067.66;6240731;23;20027;-79
2023/06/24 02:04:04;;;;;;;67.28;33.72;;;;;;;18.07;100.00;102065.75;6188924;23;20020;-79
2023/06/24 02:06:30;;;;;;;65.13;31.55;;;;;;;18.06;100.00;102064.88;6241212;23;20012;-80
2023/06/24 02:08:58;;;;;;;66.38;33.03;;;;;;;18.00;100.00;102065.44;6190273;23;20014;-79
2023/06/24 02:11:26;;;;;;;71.15;32.72;;;;;;;17.96;100.00;102058.44;6213689;23;20066;-79
2023/06/24 02:13:54;;;;;;;68.35;33.38;;;;;;;17.90;100.00;102067.31;6240368;23;20016;-77
2023/06/24 02:16:22;;;;;;;70.25;35.67;;;;;;;17.81;100.00;102063.47;6213487;23;20088;-78
2023/06/24 02:18:48;;;;;;;70.60;34.60;;;;;;;17.71;100.00;102063.41;6213524;23;20008;-79
2023/06/24 02:21:18;;;;;;;72.45;36.03;;;;;;;17.68;100.00;102055.38;6214027;23;20014;-78
2023/06/24 02:23:44;;;;;;;74.60;35.13;;;;;;;17.67;100.00;102063.81;6213680;23;20533;-79
2023/06/24 02:26:11;;;;;;;64.97;34.13;;;;;;;17.64;100.00;102052.00;6213765;23;20306;-78
2023/06/24 02:28:38;;;;;;;79.65;34.53;;;;;;;17.74;100.00;102057.59;6240108;23;20053;-78
2023/06/24 02:31:05;;;;;;;63.45;32.78;;;;;;;17.73;100.00;102063.28;6213886;23;20344;-79
2023/06/24 02:33:31;;;;;;;70.15;36.05;;;;;;;17.65;100.00;102052.88;6216412;23;20516;-77
2023/06/24 02:35:57;;;;;;;72.57;34.88;;;;;;;17.67;100.00;102055.50;6216749;23;20091;-79
2023/06/24 02:38:22;;;;;;;64.55;34.58;;;;;;;17.56;100.00;102067.53;6216464;23;20036;-78
2023/06/24 02:40:49;;;;;;;72.32;34.72;;;;;;;17.43;100.00;102060.34;6243913;23;20064;-78
2023/06/24 02:43:15;;;;;;;64.63;34.45;;;;;;;17.44;100.00;102058.44;6192198;23;20008;-79
2023/06/24 02:45:41;;;;;;;61.10;34.28;;;;;;;17.41;100.00;102065.16;6190181;23;20042;-78
2023/06/24 02:48:08;;;;;;;63.20;33.25;;;;;;;17.42;100.00;102058.59;6243072;23;20012;-79
2023/06/24 02:50:35;;;;;;;72.80;37.35;;;;;;;17.54;100.00;102066.81;6216579;23;20038;-79
2023/06/24 02:53:01;;;;;;;78.93;38.92;;;;;;;17.77;100.00;102073.03;6216065;23;20375;-76
2023/06/24 02:55:27;;;;;;;76.80;38.08;;;;;;;17.80;100.00;102079.19;6243732;23;20008;-76
2023/06/24 02:57:53;;;;;;;78.63;39.40;;;;;;;17.73;100.00;102069.69;6192729;23;20015;-77
2023/06/24 03:00:20;;;;;;;78.75;39.75;;;;;;;17.80;100.00;102084.72;6217560;23;20012;-77
2023/06/24 03:02:47;;;;;;;82.35;41.13;;;;;;;17.79;100.00;102088.53;6193034;23;20019;-77
2023/06/24 03:05:15;;;;;;;81.18;41.45;;;;;;;17.81;100.00;102088.38;6192756;23;20042;-77
2023/06/24 03:07:41;;;;;;;88.40;40.88;;;;;;;17.80;100.00;102092.16;6218264;23;20142;-78
2023/06/24 03:10:10;;;;;;;76.40;42.05;;;;;;;17.77;100.00;102085.03;6194574;23;20060;-78
2023/06/24 03:12:36;;;;;;;72.70;39.20;;;;;;;17.77;100.00;102085.03;6168585;23;20024;-78
2023/06/24 03:15:02;;;;;;;75.78;40.67;;;;;;;17.75;100.00;102078.72;6220262;23;20088;-77
2023/06/24 03:17:27;;;;;;;71.03;39.90;;;;;;;17.70;100.00;102074.63;6219420;23;20011;-78
2023/06/24 03:19:53;;;;;;;72.32;40.00;;;;;;;17.68;100.00;102077.53;6194502;23;20016;-77
2023/06/24 03:22:18;;;;;;;83.15;41.15;;;;;;;17.56;100.00;102075.84;6193071;23;20050;-77
2023/06/24 03:24:44;;;;;;;72.50;40.20;;;;;;;17.60;100.00;102067.13;6194841;23;20383;-78
2023/06/24 03:27:09;;;;;;;75.45;39.10;;;;;;;17.50;100.00;102080.06;6193952;23;20095;-78
2023/06/24 03:29:35;;;;;;;63.55;36.38;;;;;;;17.51;100.00;102073.53;6219269;23;20312;-77
2023/06/24 03:32:00;;;;;;;69.13;37.40;;;;;;;17.36;100.00;102077.63;6218642;23;20015;-76
2023/06/24 03:34:27;;;;;;;59.75;33.53;;;;;;;17.34;100.00;102076.91;6219316;23;20077;-78
2023/06/24 03:36:54;;;;;;;66.57;33.70;;;;;;;17.34;100.00;102076.91;6220040;23;20005;-76
2023/06/24 03:39:20;;;;;;;55.90;32.28;;;;;;;17.30;100.00;102075.41;6218472;23;20004;-77
2023/06/24 03:41:46;;;;;;;59.47;31.67;;;;;;;17.23;100.00;102086.13;6218265;23;20008;-77
2023/06/24 03:44:12;;;;;;;53.10;29.73;;;;;;;17.19;100.00;102088.31;6219447;23;20091;-77
2023/06/24 03:46:37;;;;;;;55.97;29.60;;;;;;;17.25;100.00;102092.44;6194064;23;20012;-77
2023/06/24 03:49:03;;;;;;;51.40;28.90;;;;;;;17.25;100.00;102093.31;6245885;23;20046;-77
2023/06/24 03:51:28;;;;;;;53.00;28.02;;;;;;;17.11;100.00;102093.63;6245684;23;20008;-78
2023/06/24 03:53:54;;;;;;;54.10;28.85;;;;;;;17.08;100.00;102096.66;6246609;23;20062;-78
2023/06/24 03:56:19;;;;;;;50.10;27.08;;;;;;;17.14;100.00;102087.84;6218472;23;20083;-79
2023/06/24 03:58:45;;;;;;;53.83;28.42;;;;;;;17.24;100.00;102091.53;6218394;23;20019;-77
2023/06/24 04:01:10;;;;;;;51.58;26.17;;;;;;;17.16;100.00;102088.56;6190978;23;20043;-79
2023/06/24 04:03:36;;;;;;;48.20;27.50;;;;;;;17.13;100.00;102096.28;6216481;23;20396;-78
2023/06/24 04:06:01;;;;;;;45.72;26.08;;;;;;;17.22;100.00;102093.56;6215645;23;20070;-79
2023/06/24 04:08:30;;;;;;;49.78;26.35;;;;;;;17.27;100.00;102094.03;6215359;23;20040;-79
2023/06/24 04:10:56;;;;;;;50.03;27.45;;;;;;;17.31;100.00;102091.00;6215612;23;20011;-77
2023/06/24 04:13:22;;;;;;;48.97;26.98;;;;;;;17.41;100.00;102091.94;6182704;23;20080;-78
2023/06/24 04:15:47;;;;;;;48.20;26.88;;;;;;;17.34;100.00;102099.91;6134031;23;20448;-77
2023/06/24 04:18:14;;;;;;;46.00;25.48;;;;;;;17.34;100.00;102094.38;6156821;23;20008;-79
2023/06/24 04:20:39;;;;;;;47.47;24.30;;;;;;;17.49;100.00;102096.81;6181858;23;20052;-79
2023/06/24 04:23:05;;;;;;;44.30;25.15;;;;;;;17.47;100.00;102098.84;6180509;23;20051;-78
2023/06/24 04:25:31;;;;;;;45.67;23.15;;;;;;;17.49;100.00;102105.97;6180280;23;20108;-78
2023/06/24 04:27:57;;;;;;;42.10;22.55;;;;;;;17.41;100.00;102098.38;6155285;23;20099;-78
2023/06/24 04:30:22;;;;;;;40.47;22.23;;;;;;;17.41;100.00;102114.09;6179739;23;20021;-78
2023/06/24 04:32:48;;;;;;;38.05;22.38;;;;;;;17.48;100.00;102115.31;6180144;23;20671;-79
2023/06/24 04:35:14;;;;;;;37.55;21.98;;;;;;;17.51;100.00;102114.16;6181894;23;20017;-79
2023/06/24 04:37:39;;;;;;;46.75;22.35;;;;;;;17.50;100.00;102109.66;6155456;23;20023;-78
2023/06/24 04:40:06;;;;;;;45.63;22.38;;;;;;;17.59;100.00;102118.03;6155825;23;20017;-78
2023/06/24 04:42:31;;;;;;;32.13;19.33;;;;;;;17.66;100.00;102101.72;6181875;23;20009;-77
2023/06/24 04:44:56;;;;;;;34.50;19.67;;;;;;;17.84;100.00;102104.75;6155652;23;20019;-81
2023/06/24 04:47:22;;;;;;;40.10;18.73;;;;;;;17.96;100.00;102106.41;6155612;23;20013;-77
2023/06/24 04:49:47;;;;;;;35.40;19.73;;;;;;;17.94;100.00;102100.16;6156263;23;20037;-78
2023/06/24 04:52:14;;;;;;;37.17;19.52;;;;;;;17.94;100.00;102102.06;6156308;23;20024;-78
2023/06/24 04:54:39;;;;;;;32.92;18.88;;;;;;;17.96;100.00;102100.88;6157073;23;20036;-79
2023/06/24 04:57:08;;;;;;;26.75;17.13;;;;;;;17.99;100.00;102097.81;6131355;23;20328;-77
2023/06/24 04:59:34;;;;;;;33.97;17.70;;;;;;;18.17;100.00;102084.19;6185493;23;20009;-79
2023/06/24 05:02:02;;;;;;;28.95;17.27;;;;;;;18.27;100.00;102091.66;6133162;23;20013;-78
2023/06/24 05:04:28;;;;;;;37.08;18.23;;;;;;;18.44;100.00;102093.72;6180595;23;20013;-80
2023/06/24 05:06:53;;;;;;;32.88;18.85;;;;;;;18.57;100.00;102098.16;6131901;23;20017;-79
2023/06/24 05:09:19;;;;;;;34.60;17.63;;;;;;;18.65;100.00;102098.31;6182395;23;20016;-79
2023/06/24 05:11:44;;;;;;;34.30;17.67;;;;;;;18.64;100.00;102104.84;6132310;23;20032;-79
2023/06/24 05:14:10;;;;;;;32.65;17.30;;;;;;;18.73;100.00;102110.41;6183928;23;20013;-80
2023/06/24 05:16:35;;;;;;;27.73;15.82;;;;;;;18.72;100.00;102105.00;6183553;23;20009;-80
2023/06/24 05:19:01;;;;;;;29.63;15.18;;;;;;;18.95;100.00;102113.09;6183800;23;20079;-79
2023/06/24 05:21:26;;;;;;;24.02;14.52;;;;;;;19.01;100.00;102112.53;6158460;23;20080;-79
2023/06/24 05:23:52;;;;;;;29.67;14.27;;;;;;;19.36;100.00;102120.22;6159436;23;20019;-79
2023/06/24 05:26:17;;;;;;;24.88;13.50;;;;;;;19.72;100.00;102108.47;6183540;23;20013;-80
2023/06/24 05:28:42;;;;;;;20.92;11.38;;;;;;;20.31;100.00;102118.34;6184271;23;20322;-79
2023/06/24 05:31:08;;;;;;;22.40;11.45;;;;;;;20.49;100.00;102109.16;6185678;23;20017;-81
2023/06/24 05:33:33;;;;;;;20.83;11.55;;;;;;;20.42;100.00;102108.91;6158807;23;20013;-80
2023/06/24 05:35:59;;;;;;;20.20;10.85;;;;;;;21.10;100.00;102113.13;6159239;23;20017;-79
2023/06/24 05:38:24;;;;;;;20.80;10.85;;;;;;;21.36;100.00;102113.19;6133326;23;20033;-80
2023/06/24 05:40:50;;;;;;;18.98;11.45;;;;;;;21.35;100.00;102114.25;6156102;23;20044;-79
2023/06/24 05:43:15;;;;;;;27.33;10.95;;;;;;;21.56;100.00;102119.50;6120129;23;20044;-80
2023/06/24 05:45:41;;;;;;;24.05;12.73;;;;;;;21.63;100.00;102115.00;6184136;23;20005;-78
2023/06/24 05:48:06;;;;;;;23.15;13.57;;;;;;;21.14;100.00;102111.78;6132932;23;20161;-79
2023/06/24 05:50:32;;;;;;;26.58;12.90;;;;;;;21.75;100.00;102115.59;6131574;23;20016;-78
2023/06/24 05:52:58;;;;;;;31.88;14.15;;;;;;;21.54;100.00;102118.75;6182775;23;20016;-81
2023/06/24 05:55:23;;;;;;;26.05;13.50;;;;;;;22.05;100.00;102104.94;6183034;23;20020;-78
2023/06/24 05:57:49;;;;;;;29.73;14.18;;;;;;;22.40;100.00;102111.44;6181234;23;20009;-76
2023/06/24 06:00:14;;;;;;;33.53;16.17;;;;;;;22.19;100.00;102115.50;6156765;23;20056;-78
2023/06/24 06:02:40;;;;;;;31.15;15.35;;;;;;;22.17;100.00;102119.50;6133175;23;20043;-75
2023/06/24 06:05:05;;;;;;;30.60;15.52;;;;;;;22.10;100.00;102119.28;6183472;23;20015;-78
2023/06/24 06:07:31;;;;;;;33.80;15.82;;;;;;;21.94;100.00;102122.88;6183154;23;20016;-77
2023/06/24 06:09:56;;;;;;;32.53;16.00;;;;;;;21.87;100.00;102118.97;6185770;23;20063;-78
2023/06/24 06:12:22;;;;;;;27.15;15.43;;;;;;;22.16;100.00;102126.97;6212238;23;20012;-79
2023/06/24 06:14:47;;;;;;;32.95;15.35;;;;;;;23.24;98.91;102133.81;6216533;23;20067;-78
2023/06/24 06:17:14;;;;;;;31.10;14.73;;;;;;;22.57;100.00;102120.72;6216767;23;20388;-79
2023/06/24 06:19:41;;;;;;;37.17;13.70;;;;;;;22.48;100.00;102119.84;6215687;23;20012;-78
2023/06/24 06:22:07;;;;;;;26.92;12.02;;;;;;;23.05;96.34;102121.00;6190703;23;20019;-79
2023/06/24 06:24:33;;;;;;;29.35;13.45;;;;;;;23.58;92.43;102127.13;6191198;23;20008;-78
2023/06/24 06:27:02;;;;;;;23.25;13.75;;;;;;;23.42;92.76;102122.44;6214701;23;20012;-80
2023/06/24 06:29:27;;;;;;;27.40;11.85;;;;;;;23.57;92.29;102131.00;6241581;23;20442;-80
2023/06/24 06:31:55;;;;;;;22.75;11.95;;;;;;;23.97;91.83;102129.19;6194006;23;20008;-80
2023/06/24 06:34:20;;;;;;;27.15;12.75;;;;;;;23.96;89.51;102128.34;6195402;23;20012;-80
2023/06/24 06:36:45;;;;;;;24.70;11.88;;;;;;;24.06;87.41;102130.94;6244016;23;20016;-78
2023/06/24 06:39:11;;;;;;;22.90;11.98;;;;;;;24.10;86.71;102143.50;6192780;23;20008;-79
2023/06/24 06:41:36;;;;;;;22.73;11.10;;;;;;;23.40;88.16;102130.13;6170218;23;20096;-78
2023/06/24 06:44:02;;;;;;;21.65;11.23;;;;;;;24.23;85.72;102137.34;6222215;23;20495;-78
2023/06/24 06:46:27;;;;;;;23.10;11.05;;;;;;;25.57;77.61;102132.50;6195921;23;20012;-78
2023/06/24 06:48:53;;;;;;;24.80;11.88;;;;;;;24.38;83.10;102138.34;6221568;23;20043;-78
2023/06/24 06:51:18;;;;;;;21.90;11.75;;;;;;;24.06;83.60;102141.25;6146744;23;20009;-78
2023/06/24 06:53:44;;;;;;;19.92;10.68;;;;;;;23.59;85.04;102143.75;6220876;23;20012;-78
2023/06/24 06:56:17;;;;;;;20.02;11.00;;;;;;;23.92;84.09;102154.03;6222239;23;20005;-78
2023/06/24 06:58:42;;;;;;;20.48;10.02;;;;;;;24.06;83.03;102150.53;6220853;23;20099;-77
2023/06/24 07:01:08;;;;;;;13.85;8.35;;;;;;;24.78;78.56;102155.16;6197913;23;20047;-79
2023/06/24 07:03:33;;;;;;;15.55;8.75;;;;;;;25.57;72.74;102160.56;6198343;23;20013;-78
2023/06/24 07:05:58;;;;;;;22.88;9.82;;;;;;;25.81;71.09;102159.44;6196092;23;20066;-79
2023/06/24 07:08:24;;;;;;;13.15;7.60;;;;;;;24.64;72.98;102165.19;6220448;23;20012;-78
2023/06/24 07:10:50;;;;;;;12.50;7.53;;;;;;;25.00;71.03;102156.22;6221755;23;20019;-79
2023/06/24 07:13:16;;;;;;;19.67;6.82;;;;;;;25.35;68.09;102162.34;6195694;23;20019;-78
2023/06/24 07:15:42;;;;;;;15.98;8.00;;;;;;;25.61;68.03;102161.94;6248167;23;20019;-81
2023/06/24 07:18:07;;;;;;;15.20;7.00;;;;;;;24.83;70.51;102154.59;6170623;23;20140;-79
2023/06/24 07:20:33;;;;;;;12.80;6.18;;;;;;;25.08;69.14;102158.13;6246593;23;20039;-80
2023/06/24 07:22:58;;;;;;;11.40;6.75;;;;;;;24.73;69.67;102161.31;6221590;23;20058;-80
2023/06/24 07:25:24;;;;;;;8.73;5.55;;;;;;;25.00;66.86;102170.25;6195813;23;20020;-80
2023/06/24 07:27:49;;;;;;;11.88;6.20;;;;;;;24.45;69.99;102168.38;6220573;23;20440;-80
2023/06/24 07:30:14;;;;;;;9.75;6.13;;;;;;;24.83;69.38;102168.63;6220612;23;20173;-79
2023/06/24 07:32:40;;;;;;;13.85;6.25;;;;;;;25.58;69.06;102158.59;6195435;23;20027;-81
2023/06/24 07:35:06;;;;;;;9.60;6.97;;;;;;;25.23;68.26;102158.19;6195027;23;20010;-82
2023/06/24 07:37:31;;;;;;;12.98;6.75;;;;;;;25.77;67.03;102168.44;6194393;23;20008;-80
2023/06/24 07:39:57;;;;;;;13.73;6.15;;;;;;;25.26;64.20;102169.03;6195997;23;20008;-81
2023/06/24 07:42:22;;;;;;;15.93;5.80;;;;;;;25.58;66.92;102158.59;6220388;23;20050;-81
2023/06/24 07:44:48;;;;;;;8.82;5.60;;;;;;;26.00;64.92;102162.78;6192974;23;20391;-81
2023/06/24 07:47:16;;;;;;;11.50;6.03;;;;;;;26.18;62.28;102166.09;6219432;23;20158;-81
2023/06/24 07:49:41;;;;;;;10.77;5.25;;;;;;;26.55;63.77;102167.06;6194540;23;20050;-84
2023/06/24 07:52:07;;;;;;;7.78;5.50;;;;;;;27.04;60.94;102171.16;6221571;23;20035;-80
2023/06/24 07:54:34;;;;;;;9.50;5.07;;;;;;;26.35;59.54;102165.88;6198556;23;20023;-79
2023/06/24 07:56:59;;;;;;;7.85;4.90;;;;;;;27.00;58.10;102174.53;6249279;23;20008;-82
2023/06/24 07:59:25;;;;;;;6.57;4.75;;;;;;;26.40;60.15;102163.41;6172161;23;20016;-81
2023/06/24 08:01:50;;;;;;;7.30;4.18;;;;;;;27.21;56.59;102171.75;6224963;23;20020;-82
2023/06/24 08:04:16;;;;;;;8.05;4.45;;;;;;;26.76;59.11;102163.47;6225180;23;20340;-80
2023/06/24 08:06:41;;;;;;;8.82;4.20;;;;;;;28.21;55.40;102167.03;6176007;23;20030;-83
2023/06/24 08:09:06;;;;;;;11.25;4.88;;;;;;;27.06;56.89;102154.09;6247913;23;20095;-84
2023/06/24 08:11:33;;;;;;;7.50;4.13;;;;;;;26.95;58.07;102156.31;6224558;23;20094;-83
2023/06/24 08:13:58;;;;;;;7.13;4.20;;;;;;;26.79;55.17;102159.38;6202087;23;20020;-84
2023/06/24 08:16:24;;;;;;;8.35;4.50;;;;;;;26.29;55.12;102156.31;6237518;22;20019;-74
2023/06/24 08:18:49;;;;;;;7.45;4.10;;;;;;;26.27;56.79;102151.94;6204739;23;20023;-83
2023/06/24 08:21:14;;;;;;;7.15;3.97;;;;;;;26.67;57.26;102149.72;6224092;23;20019;-84
2023/06/24 08:23:40;;;;;;;8.70;4.95;;;;;;;26.84;57.73;102151.22;6225091;23;20015;-83
2023/06/24 08:26:07;;;;;;;17.48;4.85;;;;;;;27.34;55.29;102156.13;6200119;23;20110;-77
2023/06/24 08:28:33;;;;;;;11.02;4.80;;;;;;;28.37;52.56;102159.31;6220468;23;20009;-86
2023/06/24 08:30:58;;;;;;;8.63;4.93;;;;;;;26.95;57.03;102152.66;6195065;23;20016;-84
2023/06/24 08:33:24;;;;;;;7.90;4.00;;;;;;;28.27;51.41;102161.63;6245238;23;20008;-83
2023/06/24 08:35:49;;;;;;;7.75;3.88;;;;;;;27.47;50.96;102153.44;6221841;23;20019;-78
2023/06/24 08:38:15;;;;;;;5.75;3.83;;;;;;;28.09;49.96;102154.63;6193866;23;20012;-77
2023/06/24 08:40:43;;;;;;;7.63;3.88;;;;;;;28.33;50.38;102158.84;6218589;23;20335;-76
2023/06/24 08:43:08;;;;;;;5.22;3.45;;;;;;;27.77;51.27;102156.06;6193645;23;20038;-79
2023/06/24 08:45:34;;;;;;;6.78;3.58;;;;;;;27.97;49.41;102156.25;6246590;23;20039;-78
2023/06/24 08:48:02;;;;;;;9.30;3.38;;;;;;;27.97;48.81;102147.81;6218789;23;20146;-78
2023/06/24 08:50:33;;;;;;;35.15;8.23;;;;;;;28.50;46.51;102150.94;6194111;23;20522;-80
2023/06/24 08:53:02;;;;;;;8.63;3.23;;;;;;;27.74;47.27;102146.06;6218678;23;20011;-80
2023/06/24 08:55:32;;;;;;;7.50;3.80;;;;;;;27.06;48.41;102142.84;6193514;23;20011;-79
2023/06/24 08:57:58;;;;;;;5.25;3.72;;;;;;;28.04;46.72;102140.28;6244566;23;20001;-79
2023/06/24 09:00:24;;;;;;;8.88;3.30;;;;;;;28.20;47.45;102145.59;6245543;23;20008;-79
2023/06/24 09:02:49;;;;;;;7.38;3.05;;;;;;;29.22;44.07;102142.09;6219137;23;20020;-78
2023/06/24 09:05:15;;;;;;;5.10;3.13;;;;;;;29.15;42.00;102142.06;6218604;23;20067;-80
2023/06/24 09:07:40;;;;;;;8.15;3.30;;;;;;;28.36;46.04;102137.84;6245113;23;20092;-80
2023/06/24 09:10:06;;;;;;;3.33;2.72;;;;;;;27.80;46.67;102139.63;6218611;23;20105;-80
2023/06/24 09:12:32;;;;;;;5.47;3.08;;;;;;;28.21;44.28;102135.19;6192857;23;20020;-80
2023/06/24 09:14:58;;;;;;;5.55;2.90;;;;;;;27.47;43.63;102136.56;6193692;23;20035;-81
2023/06/24 09:17:24;;;;;;;5.85;2.95;;;;;;;28.20;43.37;102131.50;6218138;23;20416;-80
2023/06/24 09:19:50;;;;;;;6.97;3.20;;;;;;;28.74;42.24;102132.63;6245587;23;20432;-80
2023/06/24 09:22:17;;;;;;;7.47;3.13;;;;;;;27.96;44.30;102132.84;6218795;23;20039;-81
2023/06/24 09:24:46;;;;;;;7.32;3.10;;;;;;;27.95;45.90;102119.84;6219479;23;20040;-80
2023/06/24 09:27:19;;;;;;;9.30;3.22;;;;;;;28.50;44.40;102128.41;6217625;23;20008;-81
2023/06/24 09:29:44;;;;;;;6.32;2.92;;;;;;;28.49;45.40;102122.97;6219160;23;20391;-79
2023/06/24 09:32:10;;;;;;;5.53;3.05;;;;;;;28.70;44.45;102122.84;6218581;23;20012;-79
2023/06/24 09:34:35;;;;;;;6.30;3.22;;;;;;;28.38;42.56;102128.13;6194366;23;20008;-79
2023/06/24 09:37:05;;;;;;;5.10;3.08;;;;;;;27.76;42.48;102112.09;6219048;23;20004;-81
2023/06/24 09:39:39;;;;;;;5.18;3.35;;;;;;;27.77;42.27;102113.84;6193634;23;20016;-79
2023/06/24 09:42:09;;;;;;;4.57;2.95;;;;;;;28.39;41.87;102115.75;6169717;23;20008;-81
2023/06/24 09:44:34;;;;;;;2.88;2.58;;;;;;;28.83;40.80;102109.88;6193517;23;20008;-80
2023/06/24 09:47:00;;;;;;;8.52;3.80;;;;;;;28.39;41.96;102110.13;6245395;23;20023;-81
2023/06/24 09:49:26;;;;;;;4.85;3.15;;;;;;;28.81;41.26;102112.03;6218215;23;20344;-83
2023/06/24 09:51:59;;;;;;;7.35;3.13;;;;;;;28.37;41.10;102098.19;6168552;23;20012;-81
2023/06/24 09:54:27;;;;;;;4.80;2.58;;;;;;;29.21;41.36;102109.34;6217839;23;20061;-81
2023/06/24 09:56:54;;;;;;;4.20;3.25;;;;;;;28.67;42.08;102105.50;6218597;23;20007;-81
2023/06/24 09:59:21;;;;;;;9.32;3.47;;;;;;;28.66;41.02;102104.63;6218815;23;20398;-84
2023/06/24 10:01:47;;;;;;;4.95;3.42;;;;;;;29.31;41.29;102109.78;6246429;23;20040;-81
2023/06/24 10:04:18;;;;;;;6.38;2.92;;;;;;;28.46;40.27;102100.84;6218283;23;20083;-83
2023/06/24 10:06:44;;;;;;;6.70;3.05;;;;;;;28.34;39.33;102097.75;6192058;23;20013;-82
2023/06/24 10:09:13;;;;;;;5.57;3.38;;;;;;;28.15;40.43;102100.25;6192168;23;20428;-81
2023/06/24 10:11:38;;;;;;;5.03;3.47;;;;;;;28.08;41.83;102106.94;6217275;23;20020;-82
2023/06/24 10:14:04;;;;;;;8.00;2.83;;;;;;;29.45;39.72;102103.06;6217484;23;20008;-81
2023/06/24 10:16:30;;;;;;;3.80;2.90;;;;;;;29.47;40.44;102097.19;6216929;23;20087;-81
2023/06/24 10:19:02;;;;;;;5.22;2.70;;;;;;;30.20;37.89;102091.44;6167842;23;20013;-81
2023/06/24 10:21:46;;;;;;;6.18;3.00;;;;;;;29.52;39.79;102091.78;6218461;23;20075;-82
2023/06/24 10:24:12;;;;;;;6.55;2.50;;;;;;;29.46;38.10;102082.19;6217956;23;20008;-82
2023/06/24 10:26:39;;;;;;;4.28;2.42;;;;;;;30.46;35.00;102089.63;6143386;23;20062;-82
2023/06/24 10:29:05;;;;;;;3.80;2.60;;;;;;;29.59;37.75;102092.63;6191820;23;20039;-82
2023/06/24 10:31:39;;;;;;;6.68;3.40;;;;;;;30.26;37.41;102091.66;6217931;23;20331;-78
2023/06/24 10:34:23;;;;;;;8.07;3.17;;;;;;;29.64;38.64;102092.81;6218482;23;20012;-83
2023/06/24 10:37:00;;;;;;;5.75;3.03;;;;;;;30.40;37.30;102076.38;6192423;23;20398;-84
2023/06/24 10:39:44;;;;;;;3.60;2.58;;;;;;;30.54;37.36;102077.22;6244747;23;20008;-83
2023/06/24 10:42:33;;;;;;;4.43;2.63;;;;;;;29.90;38.27;102076.97;6245363;23;20089;-83
2023/06/24 10:45:00;;;;;;;4.20;2.55;;;;;;;31.02;35.28;102075.84;6193716;23;20013;-81
2023/06/24 10:47:27;;;;;;;4.70;2.40;;;;;;;30.72;35.83;102070.81;6243732;23;20135;-84
2023/06/24 10:49:53;;;;;;;3.45;2.80;;;;;;;29.96;38.46;102067.63;6245263;23;20087;-82
2023/06/24 10:52:22;;;;;;;3.50;2.65;;;;;;;29.68;36.04;102079.16;6192619;23;20098;-81
2023/06/24 10:54:49;;;;;;;6.43;2.95;;;;;;;29.61;37.71;102078.28;6168593;23;20023;-82
2023/06/24 10:57:21;;;;;;;3.10;2.70;;;;;;;30.14;37.03;102063.19;6192871;23;20014;-82
2023/06/24 10:59:48;;;;;;;5.55;2.58;;;;;;;29.49;37.13;102069.63;6218213;23;20027;-82
2023/06/24 11:02:15;;;;;;;4.93;2.83;;;;;;;29.55;38.57;102060.28;6193528;23;20020;-83
2023/06/24 11:04:43;;;;;;;5.13;2.78;;;;;;;29.64;37.78;102056.13;6217607;23;20016;-83
2023/06/24 11:07:09;;;;;;;3.95;2.33;;;;;;;29.51;36.68;102053.31;6217351;23;20050;-84
2023/06/24 11:09:34;;;;;;;3.83;2.72;;;;;;;29.13;38.56;102048.31;6192718;23;20039;-83